createdAt,value
2022-07-29T00:01:55.906Z,12.14
2022-07-29T00:05:18.085Z,12.08
2022-07-29T00:08:40.398Z,12.04
2022-07-29T00:12:03.290Z,11.90
2022-07-29T00:15:26.651Z,11.91
2022-07-29T00:18:48.837Z,11.84
2022-07-29T00:22:11.061Z,11.77
2022-07-29T00:25:32.889Z,11.67
2022-07-29T00:29:17.106Z,11.55
2022-07-29T00:32:38.997Z,11.55
2022-07-29T00:36:01.078Z,11.51
2022-07-29T00:39:23.186Z,11.44
2022-07-29T00:42:45.985Z,11.40
2022-07-29T00:46:08.077Z,11.32
2022-07-29T00:49:31.269Z,11.32
2022-07-29T00:52:54.442Z,11.28
2022-07-29T00:56:16.353Z,11.02
2022-07-29T00:59:38.219Z,11.19
2022-07-29T01:03:00.452Z,11.08
2022-07-29T01:06:26.991Z,10.97
2022-07-29T01:09:49.673Z,11.06
2022-07-29T01:13:12.902Z,11.02
2022-07-29T01:16:39.640Z,10.94
2022-07-29T01:20:09.054Z,10.92
2022-07-29T01:23:50.665Z,10.85
2022-07-29T01:27:30.671Z,10.85
2022-07-29T01:30:56.348Z,10.81
2022-07-29T01:34:26.080Z,10.78
2022-07-29T01:37:54.343Z,10.78
2022-07-29T01:41:19.802Z,10.69
2022-07-29T01:44:47.989Z,10.55
2022-07-29T01:48:17.586Z,10.70
2022-07-29T01:51:42.631Z,10.66
2022-07-29T01:55:10.287Z,10.57
2022-07-29T01:58:35.080Z,10.51
2022-07-29T02:02:00.889Z,10.51
2022-07-29T02:05:26.345Z,10.47
2022-07-29T02:08:50.193Z,10.43
2022-07-29T02:12:14.105Z,10.39
2022-07-29T02:15:38.043Z,10.27
2022-07-29T02:19:02.922Z,10.32
2022-07-29T02:22:29.133Z,10.26
2022-07-29T02:25:53.171Z,10.22
2022-07-29T02:29:17.600Z,10.16
2022-07-29T02:32:41.854Z,10.08
2022-07-29T02:36:05.174Z,10.09
2022-07-29T02:39:31.121Z,10.08
2022-07-29T02:42:53.319Z,10.01
2022-07-29T02:46:28.582Z,10.02
2022-07-29T02:49:57.453Z,10.00
2022-07-29T02:53:22.341Z,10.01
2022-07-29T02:56:48.278Z,9.97
2022-07-29T03:00:12.781Z,9.91
2022-07-29T03:03:38.637Z,9.95
2022-07-29T03:07:02.847Z,9.87
2022-07-29T03:10:25.802Z,9.93
2022-07-29T03:13:49.323Z,9.93
2022-07-29T03:17:12.221Z,9.95
2022-07-29T03:20:34.477Z,10.04
2022-07-29T03:23:56.849Z,10.23
2022-07-29T03:27:18.825Z,10.52
2022-07-29T03:30:42.044Z,10.76
2022-07-29T03:34:06.632Z,10.99
2022-07-29T03:37:28.762Z,11.21
2022-07-29T03:40:55.268Z,11.41
2022-07-29T03:44:19.136Z,11.53
2022-07-29T03:47:51.003Z,11.65
2022-07-29T03:51:13.332Z,11.79
2022-07-29T03:54:35.642Z,12.00
2022-07-29T03:58:00.024Z,12.14
2022-07-29T04:01:23.273Z,12.32
2022-07-29T04:04:46.785Z,12.50
2022-07-29T04:08:08.609Z,12.76
2022-07-29T04:11:30.437Z,12.92
2022-07-29T04:14:52.398Z,13.14
2022-07-29T04:18:14.527Z,13.33
2022-07-29T04:21:40.863Z,13.56
2022-07-29T04:25:04.283Z,13.57
2022-07-29T04:28:27.180Z,13.75
2022-07-29T04:31:48.965Z,13.93
2022-07-29T04:35:10.874Z,14.14
2022-07-29T04:38:34.454Z,14.26
2022-07-29T04:41:56.536Z,14.35
2022-07-29T04:45:22.607Z,14.32
2022-07-29T04:48:44.782Z,14.28
2022-07-29T04:52:07.756Z,14.35
2022-07-29T04:55:31.260Z,14.53
2022-07-29T04:58:53.579Z,14.46
2022-07-29T05:02:15.752Z,14.24
2022-07-29T05:05:37.571Z,14.17
2022-07-29T05:08:59.511Z,14.23
2022-07-29T05:12:22.824Z,14.41
2022-07-29T05:15:45.153Z,14.48
2022-07-29T05:19:09.707Z,14.69
2022-07-29T05:22:35.706Z,14.80
2022-07-29T05:25:57.889Z,14.94
2022-07-29T05:29:43.176Z,15.04
2022-07-29T05:33:02.957Z,15.25
2022-07-29T05:36:24.765Z,15.35
2022-07-29T05:39:47.393Z,15.50
2022-07-29T05:43:10.747Z,15.61
2022-07-29T05:46:33.983Z,15.67
2022-07-29T05:49:56.268Z,15.77
2022-07-29T05:53:19.882Z,15.87
2022-07-29T05:56:42.382Z,15.95
2022-07-29T06:00:05.293Z,16.05
2022-07-29T06:03:28.580Z,16.19
2022-07-29T06:06:50.713Z,16.26
2022-07-29T06:10:12.738Z,16.42
2022-07-29T06:13:34.566Z,16.56
2022-07-29T06:16:56.568Z,16.65
2022-07-29T06:20:20.213Z,16.49
2022-07-29T06:23:49.149Z,16.38
2022-07-29T06:27:10.909Z,16.45
2022-07-29T06:30:33.010Z,16.66
2022-07-29T06:33:55.249Z,16.74
2022-07-29T06:37:18.837Z,16.94
2022-07-29T06:41:02.269Z,17.06
2022-07-29T06:44:24.226Z,17.16
2022-07-29T06:47:45.978Z,17.01
2022-07-29T06:51:08.884Z,17.17
2022-07-29T06:54:32.146Z,17.25
2022-07-29T06:57:54.108Z,17.40
2022-07-29T07:01:16.048Z,17.61
2022-07-29T07:04:37.965Z,17.76
2022-07-29T07:08:02.975Z,17.60
2022-07-29T07:11:26.282Z,17.35
2022-07-29T07:14:49.340Z,17.06
2022-07-29T07:18:11.151Z,16.86
2022-07-29T07:21:34.716Z,17.07
2022-07-29T07:24:58.159Z,17.54
2022-07-29T07:28:24.610Z,17.61
2022-07-29T07:31:47.202Z,17.39
2022-07-29T07:35:10.885Z,17.10
2022-07-29T07:38:32.863Z,17.48
2022-07-29T07:41:54.951Z,17.52
2022-07-29T07:45:18.686Z,17.35
2022-07-29T07:48:40.494Z,17.07
2022-07-29T07:52:02.323Z,16.81
2022-07-29T07:55:24.429Z,16.84
2022-07-29T07:58:46.516Z,17.16
2022-07-29T08:02:11.737Z,17.53
2022-07-29T08:05:33.500Z,18.03
2022-07-29T08:08:56.425Z,18.38
2022-07-29T08:12:18.717Z,18.40
2022-07-29T08:15:42.549Z,18.24
2022-07-29T08:19:06.014Z,17.90
2022-07-29T08:22:28.125Z,17.59
2022-07-29T08:25:50.497Z,17.34
2022-07-29T08:29:17.069Z,17.22
2022-07-29T08:32:53.745Z,17.12
2022-07-29T08:36:17.487Z,17.08
2022-07-29T08:39:39.780Z,17.01
2022-07-29T08:43:07.201Z,17.10
2022-07-29T08:46:29.250Z,17.24
2022-07-29T08:49:51.369Z,17.25
2022-07-29T08:53:17.029Z,17.44
2022-07-29T08:56:40.562Z,17.99
2022-07-29T09:00:08.064Z,18.17
2022-07-29T09:03:36.259Z,18.28
2022-07-29T09:07:02.873Z,18.17
2022-07-29T09:10:26.810Z,17.91
2022-07-29T09:13:50.660Z,17.82
2022-07-29T09:17:12.783Z,17.72
2022-07-29T09:20:48.588Z,17.81
2022-07-29T09:24:12.343Z,17.84
2022-07-29T09:27:36.921Z,17.88
2022-07-29T09:31:00.321Z,17.99
2022-07-29T09:34:27.505Z,18.42
2022-07-29T09:37:52.291Z,18.80
2022-07-29T09:41:15.222Z,18.84
2022-07-29T09:44:49.382Z,18.58
2022-07-29T09:48:18.925Z,18.48
2022-07-29T09:51:42.512Z,18.38
2022-07-29T09:55:08.477Z,18.28
2022-07-29T09:58:30.675Z,18.40
2022-07-29T10:01:55.444Z,18.39
2022-07-29T10:05:23.036Z,18.56
2022-07-29T10:08:45.122Z,18.69
2022-07-29T10:12:10.224Z,18.70
2022-07-29T10:15:34.357Z,19.07
2022-07-29T10:18:57.805Z,19.24
2022-07-29T10:22:50.463Z,19.08
2022-07-29T10:26:02.821Z,18.56
2022-07-29T10:29:25.096Z,18.17
2022-07-29T10:33:02.458Z,17.74
2022-07-29T10:36:50.625Z,17.59
2022-07-29T10:40:41.827Z,17.78
2022-07-29T10:44:16.096Z,18.10
2022-07-29T10:47:39.437Z,18.36
2022-07-29T10:51:04.162Z,18.36
2022-07-29T10:54:51.260Z,18.95
2022-07-29T10:58:19.019Z,19.23
2022-07-29T11:01:41.080Z,19.30
2022-07-29T11:05:13.782Z,19.62
2022-07-29T11:08:35.871Z,19.74
2022-07-29T11:11:59.622Z,19.78
2022-07-29T11:15:25.258Z,19.76
2022-07-29T11:19:29.790Z,19.61
2022-07-29T11:23:21.860Z,19.51
2022-07-29T11:26:44.690Z,19.34
2022-07-29T11:30:10.803Z,18.90
2022-07-29T11:33:54.478Z,19.08
2022-07-29T11:41:23.969Z,19.37
2022-07-29T11:45:08.475Z,19.59
2022-07-29T11:48:46.152Z,19.75
2022-07-29T11:52:08.331Z,19.70
2022-07-29T11:55:36.996Z,19.45
2022-07-29T11:59:15.310Z,19.51
2022-07-29T12:02:48.331Z,19.53
2022-07-29T12:06:18.116Z,19.25
2022-07-29T12:07:03.218Z,19.07
2022-07-29T12:09:41.631Z,19.24
2022-07-29T12:13:03.674Z,19.25
2022-07-29T12:16:29.725Z,19.09
2022-07-29T12:19:51.823Z,18.86
2022-07-29T12:23:18.867Z,18.84
2022-07-29T12:26:51.883Z,18.96
2022-07-29T12:30:17.464Z,19.07
2022-07-29T12:33:39.862Z,19.29
2022-07-29T12:37:03.003Z,19.47
2022-07-29T12:40:27.008Z,19.50
2022-07-29T12:43:56.075Z,19.84
2022-07-29T12:47:19.348Z,19.96
2022-07-29T12:50:59.904Z,20.24
2022-07-29T12:54:22.023Z,20.45
2022-07-29T12:57:49.869Z,20.51
2022-07-29T13:01:16.953Z,20.40
2022-07-29T13:04:39.356Z,20.35
2022-07-29T13:08:20.238Z,20.11
2022-07-29T13:11:48.666Z,20.02
2022-07-29T13:15:19.167Z,20.01
2022-07-29T13:18:42.381Z,20.08
2022-07-29T13:22:04.781Z,20.09
2022-07-29T13:25:28.356Z,20.17
2022-07-29T13:28:50.854Z,20.13
2022-07-29T13:32:15.700Z,20.20
2022-07-29T13:35:39.907Z,20.25
2022-07-29T13:39:03.783Z,20.36
2022-07-29T13:42:26.540Z,20.51
2022-07-29T13:45:48.492Z,20.72
2022-07-29T13:49:12.468Z,21.03
2022-07-29T13:52:34.522Z,20.98
2022-07-29T13:55:56.945Z,20.57
2022-07-29T13:59:19.203Z,20.29
2022-07-29T14:02:41.237Z,19.93
2022-07-29T14:06:04.404Z,19.72
2022-07-29T14:09:26.591Z,19.53
2022-07-29T14:12:48.606Z,19.37
2022-07-29T14:16:10.639Z,19.29
2022-07-29T14:19:36.441Z,19.25
2022-07-29T14:23:00.406Z,19.59
2022-07-29T14:26:24.191Z,19.87
2022-07-29T14:29:46.281Z,20.01
2022-07-29T14:33:08.011Z,19.95
2022-07-29T14:36:30.063Z,19.99
2022-07-29T14:39:55.069Z,20.20
2022-07-29T14:43:17.220Z,20.28
2022-07-29T14:46:39.196Z,20.25
2022-07-29T14:50:01.054Z,20.19
2022-07-29T14:53:23.154Z,20.13
2022-07-29T14:56:47.161Z,20.16
2022-07-29T15:00:10.882Z,20.25
2022-07-29T15:03:33.866Z,20.24
2022-07-29T15:06:55.892Z,20.04
2022-07-29T15:10:18.645Z,20.13
2022-07-29T15:13:42.385Z,19.86
2022-07-29T15:17:04.959Z,19.74
2022-07-29T15:20:28.229Z,19.68
2022-07-29T15:23:50.447Z,19.64
2022-07-29T15:27:15.186Z,19.59
2022-07-29T15:30:41.938Z,19.66
2022-07-29T15:34:06.285Z,19.63
2022-07-29T15:37:48.453Z,19.64
2022-07-29T15:41:11.018Z,19.64
2022-07-29T15:44:33.110Z,19.65
2022-07-29T15:47:56.638Z,19.66
2022-07-29T15:51:18.567Z,19.62
2022-07-29T15:54:41.887Z,19.50
2022-07-29T15:58:05.388Z,19.43
2022-07-29T16:01:27.286Z,19.36
2022-07-29T16:04:50.774Z,19.30
2022-07-29T16:08:12.793Z,19.33
2022-07-29T16:11:35.034Z,19.26
2022-07-29T16:14:59.369Z,19.23
2022-07-29T16:18:21.534Z,19.19
2022-07-29T16:21:56.977Z,19.17
2022-07-29T16:25:29.600Z,19.11
2022-07-29T16:29:00.975Z,19.07
2022-07-29T16:32:23.173Z,19.12
2022-07-29T16:35:45.042Z,19.12
2022-07-29T16:39:08.511Z,19.11
2022-07-29T16:42:45.944Z,19.05
2022-07-29T16:46:09.373Z,18.90
2022-07-29T16:49:35.871Z,19.21
2022-07-29T16:52:58.327Z,19.62
2022-07-29T16:56:21.549Z,19.90
2022-07-29T16:59:43.744Z,19.90
2022-07-29T17:03:06.678Z,19.73
2022-07-29T17:06:29.589Z,19.52
2022-07-29T17:09:55.333Z,19.32
2022-07-29T17:13:19.674Z,19.08
2022-07-29T17:16:41.495Z,19.04
2022-07-29T17:20:03.582Z,19.05
2022-07-29T17:23:25.638Z,19.55
2022-07-29T17:26:47.587Z,20.27
2022-07-29T17:30:11.699Z,20.83
2022-07-29T17:33:33.490Z,21.07
2022-07-29T17:36:55.369Z,21.23
2022-07-29T17:40:17.521Z,21.25
2022-07-29T17:43:39.519Z,21.44
2022-07-29T17:47:03.453Z,21.55
2022-07-29T17:50:25.482Z,21.53
2022-07-29T17:53:47.373Z,20.93
2022-07-29T17:57:09.249Z,20.45
2022-07-29T18:00:31.351Z,19.79
2022-07-29T18:03:58.465Z,19.30
2022-07-29T18:07:22.143Z,18.90
2022-07-29T18:10:44.260Z,18.85
2022-07-29T18:14:06.152Z,19.07
2022-07-29T18:17:48.401Z,19.01
2022-07-29T18:21:11.671Z,18.77
2022-07-29T18:24:33.334Z,18.53
2022-07-29T18:28:00.146Z,18.32
2022-07-29T18:31:22.668Z,18.08
2022-07-29T18:34:44.358Z,17.90
2022-07-29T18:38:08.504Z,17.71
2022-07-29T18:41:30.481Z,17.53
2022-07-29T18:44:54.916Z,17.34
2022-07-29T18:48:16.678Z,17.18
2022-07-29T18:51:39.288Z,17.07
2022-07-29T18:55:03.836Z,16.94
2022-07-29T18:58:25.706Z,16.80
2022-07-29T19:01:48.685Z,16.50
2022-07-29T19:05:11.758Z,16.61
2022-07-29T19:08:33.965Z,16.48
2022-07-29T19:12:01.854Z,16.40
2022-07-29T19:15:25.626Z,16.32
2022-07-29T19:18:48.135Z,16.20
2022-07-29T19:22:10.295Z,16.12
2022-07-29T19:25:32.155Z,16.01
2022-07-29T19:28:58.849Z,15.87
2022-07-29T19:32:25.042Z,15.83
2022-07-29T19:35:52.838Z,15.71
2022-07-29T19:39:16.956Z,15.62
2022-07-29T19:42:39.259Z,15.47
2022-07-29T19:46:02.678Z,15.38
2022-07-29T19:49:24.846Z,15.24
2022-07-29T19:52:47.717Z,15.11
2022-07-29T19:56:09.573Z,14.99
2022-07-29T19:59:32.173Z,14.89
2022-07-29T20:02:57.437Z,14.76
2022-07-29T20:06:19.440Z,14.61
2022-07-29T20:09:42.032Z,14.52
2022-07-29T20:13:04.279Z,14.51
2022-07-29T20:16:26.295Z,14.46
2022-07-29T20:19:49.742Z,14.30
2022-07-29T20:23:12.096Z,14.32
2022-07-29T20:26:34.440Z,14.19
2022-07-29T20:29:56.593Z,14.16
2022-07-29T20:33:18.848Z,14.06
2022-07-29T20:36:42.461Z,14.04
2022-07-29T20:40:04.880Z,13.96
2022-07-29T20:43:27.746Z,13.94
2022-07-29T20:46:49.531Z,13.70
2022-07-29T20:50:11.949Z,13.83
2022-07-29T20:53:35.166Z,13.79
2022-07-29T20:56:58.081Z,13.51
2022-07-29T21:00:20.212Z,13.61
2022-07-29T21:03:42.128Z,13.57
2022-07-29T21:07:04.420Z,13.51
2022-07-29T21:10:28.537Z,13.47
2022-07-29T21:13:50.293Z,13.33
2022-07-29T21:17:12.176Z,13.17
2022-07-29T21:20:33.990Z,13.27
2022-07-29T21:23:55.868Z,13.20
2022-07-29T21:27:38.385Z,13.13
2022-07-29T21:31:02.605Z,13.00
2022-07-29T21:34:24.691Z,13.01
2022-07-29T21:37:46.804Z,12.87
2022-07-29T21:41:10.889Z,12.81
2022-07-29T21:44:35.541Z,12.82
2022-07-29T21:47:57.459Z,12.65
2022-07-29T21:51:19.273Z,12.58
2022-07-29T21:54:41.047Z,12.57
2022-07-29T21:58:03.990Z,12.58
2022-07-29T22:01:27.598Z,12.57
2022-07-29T22:04:50.810Z,12.51
2022-07-29T22:08:13.640Z,12.45
2022-07-29T22:11:36.866Z,12.41
2022-07-29T22:14:59.667Z,12.38
2022-07-29T22:18:23.094Z,12.35
2022-07-29T22:21:45.188Z,12.33
2022-07-29T22:25:08.400Z,12.29
2022-07-29T22:28:30.522Z,12.25
2022-07-29T22:31:52.376Z,12.23
2022-07-29T22:35:15.997Z,12.13
2022-07-29T22:38:38.182Z,12.09
2022-07-29T22:42:00.161Z,12.07
2022-07-29T22:45:22.690Z,12.04
2022-07-29T22:48:44.673Z,11.99
2022-07-29T22:52:08.019Z,11.95
2022-07-29T22:55:30.042Z,11.91
2022-07-29T22:58:53.498Z,11.88
2022-07-29T23:02:15.442Z,11.83
2022-07-29T23:05:37.865Z,11.75
2022-07-29T23:09:01.231Z,11.59
2022-07-29T23:12:22.914Z,11.76
2022-07-29T23:15:44.858Z,11.75
2022-07-29T23:19:06.569Z,11.72
2022-07-29T23:22:28.341Z,11.59
2022-07-29T23:25:51.843Z,11.66
2022-07-29T23:29:14.306Z,11.62
2022-07-29T23:32:36.254Z,11.45
2022-07-29T23:35:58.059Z,11.56
2022-07-29T23:39:19.986Z,11.52
2022-07-29T23:42:43.929Z,11.49
2022-07-29T23:46:06.580Z,11.48
2022-07-29T23:49:29.127Z,11.42
2022-07-29T23:52:50.986Z,11.43
2022-07-29T23:56:13.557Z,11.36
2022-07-29T23:59:37.332Z,11.36
